Time;durP1;ratioP1;P1;durP2;ratioP2;P2;SDS_P1;SDS_P2;PMS_P1;PMS_P2;Temp;Humidity;BMP_temperature;BMP_pressure;BME280_temperature;BME280_humidity;BME280_pressure;Samples;Min_cycle;Max_cycle;Signal;HPM_P1;HPM_P2
2022/11/03 00:00:40;;;;;;;6.15;2.98;;;;;;;9.65;82.24;101622.44;1726909;81;21560;-87
2022/11/03 00:03:07;;;;;;;6.22;2.75;;;;;;;9.56;82.17;101628.62;1754456;81;21097;-88
2022/11/03 00:08:19;;;;;;;8.43;3.02;;;;;;;9.56;82.59;101636.93;1754630;81;21062;-88
2022/11/03 00:10:45;;;;;;;9.70;2.70;;;;;;;9.57;82.49;101634.34;1753964;80;22171;-87
2022/11/03 00:13:12;;;;;;;8.35;2.80;;;;;;;9.55;82.36;101642.58;1745385;82;21092;-87
2022/11/03 00:15:49;;;;;;;6.97;2.98;;;;;;;9.53;82.42;101646.87;1695995;83;21606;-87
2022/11/03 00:18:15;;;;;;;7.10;2.75;;;;;;;9.51;82.38;101650.73;1745606;81;23025;-87
2022/11/03 00:20:42;;;;;;;7.22;2.47;;;;;;;9.47;82.26;101652.75;1724470;83;21085;-87
2022/11/03 00:23:09;;;;;;;6.83;2.42;;;;;;;9.41;82.21;101648.55;1747053;81;21058;-87
2022/11/03 00:25:36;;;;;;;8.23;2.87;;;;;;;9.37;82.24;101653.20;1747492;82;22101;-88
2022/11/03 00:28:03;;;;;;;10.63;2.80;;;;;;;9.36;82.39;101652.70;1747153;81;21525;-88
2022/11/03 00:30:30;;;;;;;8.35;2.60;;;;;;;9.41;82.52;101651.61;1747437;82;22441;-88
2022/11/03 00:32:58;;;;;;;7.95;3.27;;;;;;;9.44;82.55;101650.02;1747365;81;21050;-88
2022/11/03 00:35:25;;;;;;;5.10;2.42;;;;;;;9.44;82.40;101647.39;1747598;82;21082;-88
2022/11/03 00:37:51;;;;;;;7.20;2.50;;;;;;;9.39;82.20;101651.53;1752307;80;22351;-88
2022/11/03 00:40:18;;;;;;;8.70;2.77;;;;;;;9.32;82.04;101643.78;1769492;81;21067;-88
2022/11/03 00:42:45;;;;;;;9.45;2.45;;;;;;;9.24;81.97;101654.37;1769336;80;21701;-88
2022/11/03 00:45:12;;;;;;;8.88;2.75;;;;;;;9.16;81.97;101650.52;1769470;81;21152;-88
2022/11/03 00:48:28;;;;;;;9.55;3.08;;;;;;;9.08;82.01;101652.77;1769250;80;22647;-88
2022/11/03 00:50:08;;;;;;;9.35;2.77;;;;;;;9.01;82.04;101652.03;1765184;81;21064;-89
2022/11/03 00:52:35;;;;;;;10.00;2.50;;;;;;;8.94;82.09;101652.15;1769310;81;21066;-88
2022/11/03 00:55:03;;;;;;;6.55;2.27;;;;;;;8.87;82.10;101659.67;1768960;81;21623;-88
2022/11/03 00:57:29;;;;;;;7.53;2.83;;;;;;;8.79;82.18;101654.07;1769154;80;21125;-88
2022/11/03 00:59:56;;;;;;;7.05;2.87;;;;;;;8.73;82.29;101653.37;1760028;81;21084;-88
2022/11/03 01:02:23;;;;;;;7.08;2.70;;;;;;;8.68;82.34;101657.92;1750107;81;21078;-88
2022/11/03 01:07:35;;;;;;;5.95;2.55;;;;;;;8.56;82.42;101667.01;1727368;83;21857;-88
2022/11/03 01:10:02;;;;;;;10.03;2.60;;;;;;;8.50;82.52;101665.80;1727264;83;21070;-88
2022/11/03 01:12:29;;;;;;;9.00;2.98;;;;;;;8.48;82.65;101674.02;1725250;82;21159;-88
2022/11/03 01:14:56;;;;;;;8.68;2.67;;;;;;;8.47;82.83;101661.73;1743514;81;21104;-90
2022/11/03 01:17:28;;;;;;;6.55;2.60;;;;;;;8.44;82.81;101676.01;1768916;81;21618;-89
2022/11/03 01:19:55;;;;;;;8.35;2.87;;;;;;;8.38;82.73;101673.95;1747665;82;21724;-90
2022/11/03 01:22:23;;;;;;;6.53;2.60;;;;;;;8.32;82.75;101671.93;1748009;80;21070;-90
2022/11/03 01:24:52;;;;;;;6.05;2.65;;;;;;;8.27;82.80;101669.91;1748000;82;21073;-89
2022/11/03 01:27:22;;;;;;;8.15;2.75;;;;;;;8.23;82.88;101672.79;1748001;81;21170;-89
2022/11/03 01:29:48;;;;;;;4.97;2.77;;;;;;;8.20;82.87;101666.48;1723670;83;21058;-88
2022/11/03 01:32:15;;;;;;;8.00;2.60;;;;;;;8.13;82.97;101666.62;1750128;81;21757;-88
2022/11/03 01:34:42;;;;;;;9.43;3.08;;;;;;;8.09;83.13;101665.95;1726773;83;21431;-89
2022/11/03 01:37:11;;;;;;;10.68;3.05;;;;;;;8.07;83.25;101666.28;1753541;81;21058;-89
2022/11/03 01:39:44;;;;;;;8.93;2.70;;;;;;;8.05;83.28;101665.31;1768244;80;21578;-89
2022/11/03 01:42:13;;;;;;;6.70;2.45;;;;;;;8.01;83.37;101662.05;1768608;80;21561;-88
2022/11/03 01:44:45;;;;;;;9.00;2.65;;;;;;;7.99;83.43;101669.84;1771073;80;21741;-88
2022/11/03 01:47:16;;;;;;;9.58;2.45;;;;;;;7.94;83.49;101674.87;1769181;80;20999;-89
2022/11/03 01:50:05;;;;;;;10.43;2.87;;;;;;;7.92;83.59;101675.59;1727106;82;21053;-89
2022/11/03 01:52:38;;;;;;;11.53;2.85;;;;;;;7.91;83.77;101679.05;1726036;83;21601;-88
2022/11/03 01:55:10;;;;;;;9.63;3.62;;;;;;;7.91;83.81;101689.54;1726112;83;21360;-90
2022/11/03 01:57:40;;;;;;;14.78;2.72;;;;;;;7.88;83.87;101690.68;1730775;81;21839;-89
2022/11/03 02:00:08;;;;;;;10.55;2.92;;;;;;;7.86;83.92;101687.98;1751642;81;21028;-89
2022/11/03 02:02:38;;;;;;;6.20;2.40;;;;;;;7.84;84.05;101689.62;1761450;81;21042;-90
2022/11/03 02:05:07;;;;;;;6.92;2.75;;;;;;;7.85;84.08;101693.17;1761032;81;21113;-89
2022/11/03 02:07:48;;;;;;;8.03;2.30;;;;;;;7.82;84.19;101686.02;1761455;81;21058;-89
2022/11/03 02:10:18;;;;;;;10.40;2.90;;;;;;;7.82;84.28;101688.65;1761673;81;22025;-89
2022/11/03 02:12:44;;;;;;;15.28;2.95;;;;;;;7.80;84.29;101687.67;1744425;81;21714;-89
2022/11/03 02:15:13;;;;;;;13.25;2.77;;;;;;;7.80;84.33;101688.98;1761468;81;21553;-90
2022/11/03 02:17:40;;;;;;;5.83;1.98;;;;;;;7.80;84.40;101695.53;1760673;81;21164;-90
2022/11/03 02:20:11;;;;;;;6.45;2.52;;;;;;;7.78;84.44;101690.63;1741963;81;21067;-90
2022/11/03 02:23:05;;;;;;;16.02;2.85;;;;;;;7.77;84.49;101698.91;1757683;79;21765;-90
2022/11/03 02:25:47;;;;;;;9.43;2.60;;;;;;;7.76;84.48;101694.89;1759623;81;21613;-90
2022/11/03 02:28:21;;;;;;;11.20;2.70;;;;;;;7.73;84.50;101694.72;1759218;80;21066;-90
2022/11/03 02:31:11;;;;;;;8.50;2.62;;;;;;;7.72;84.62;101692.94;1761593;81;21086;-90
2022/11/03 02:33:55;;;;;;;10.98;2.92;;;;;;;7.72;84.65;101692.52;1761664;81;21106;-89
2022/11/03 02:36:34;;;;;;;;;;;;;;;7.71;84.69;101693.33;1764172;81;21682;-89
2022/11/03 02:39:26;;;;;;;9.38;2.80;;;;;;;7.69;84.71;101694.97;1761126;80;20298;-89
2022/11/03 02:41:55;;;;;;;6.42;2.80;;;;;;;7.68;84.73;101697.13;1760602;81;21056;-88
2022/11/03 02:44:24;;;;;;;8.78;2.92;;;;;;;7.64;84.73;101700.41;1744388;80;21052;-88
2022/11/03 02:46:55;;;;;;;7.90;2.50;;;;;;;7.62;84.79;101707.68;1769891;79;21052;-88
2022/11/03 02:49:22;;;;;;;12.73;3.25;;;;;;;7.61;84.84;101712.03;1762952;81;21793;-88
2022/11/03 02:52:02;;;;;;;13.72;3.00;;;;;;;7.61;84.87;101713.76;1763406;81;20995;-89
2022/11/03 02:54:37;;;;;;;9.38;3.50;;;;;;;7.58;84.87;101715.78;1762173;80;21304;-89
2022/11/03 02:57:15;;;;;;;8.68;2.90;;;;;;;7.57;84.94;101715.31;1745558;81;20983;-88
2022/11/03 02:59:50;;;;;;;13.22;3.05;;;;;;;7.57;85.02;101721.45;1760067;81;21035;-89
2022/11/03 03:02:23;;;;;;;9.48;2.95;;;;;;;7.60;85.13;101719.38;1727902;83;21834;-90
2022/11/03 03:04:54;;;;;;;11.53;3.20;;;;;;;7.62;85.25;101716.47;1729145;83;21030;-89
2022/11/03 03:07:30;;;;;;;10.78;2.70;;;;;;;7.67;85.38;101718.89;1728624;83;21014;-89
2022/11/03 03:10:13;;;;;;;12.10;2.95;;;;;;;7.70;85.42;101707.69;1704131;83;20979;-89
2022/11/03 03:12:44;;;;;;;7.97;2.50;;;;;;;7.73;85.48;101701.27;1700051;83;21075;-88
2022/11/03 03:15:11;;;;;;;10.35;2.52;;;;;;;7.76;85.50;101708.00;1696473;83;21801;-89
2022/11/03 03:18:03;;;;;;;12.43;2.70;;;;;;;7.77;85.40;101707.16;1725477;83;21069;-88
2022/11/03 03:20:35;;;;;;;8.65;2.85;;;;;;;7.77;85.47;101703.23;1722968;82;21066;-88
2022/11/03 03:23:18;;;;;;;9.95;3.05;;;;;;;7.75;85.45;101705.80;1753394;81;21093;-88
2022/11/03 03:25:49;;;;;;;12.65;2.62;;;;;;;7.74;85.50;101709.23;1767068;80;21125;-89
2022/11/03 03:28:21;;;;;;;13.45;2.50;;;;;;;7.72;85.59;101709.98;1767424;80;22548;-88
2022/11/03 03:30:48;;;;;;;12.40;3.08;;;;;;;7.70;85.60;101724.30;1753610;81;21078;-88
2022/11/03 03:33:15;;;;;;;10.90;3.35;;;;;;;7.68;85.63;101725.95;1766936;81;20950;-88
2022/11/03 03:35:44;;;;;;;13.83;2.90;;;;;;;7.67;85.61;101732.00;1766993;81;21593;-89
2022/11/03 03:38:18;;;;;;;9.25;2.50;;;;;;;7.65;85.69;101731.44;1767773;81;21066;-88
2022/11/03 03:40:49;;;;;;;10.58;2.87;;;;;;;7.64;85.76;101734.86;1766609;80;22179;-89
2022/11/03 03:43:17;;;;;;;15.93;3.35;;;;;;;7.59;85.84;101731.59;1753461;80;21062;-89
2022/11/03 03:45:44;;;;;;;13.48;3.40;;;;;;;7.63;85.93;101740.94;1766987;80;21657;-89
2022/11/03 03:48:11;;;;;;;9.40;2.80;;;;;;;7.62;85.97;101740.05;1766948;81;21086;-89
2022/11/03 03:50:38;;;;;;;11.03;2.83;;;;;;;7.63;86.07;101738.32;1765470;81;21066;-90
2022/11/03 03:53:08;;;;;;;8.38;2.60;;;;;;;7.63;86.08;101733.08;1741286;81;21612;-89
2022/11/03 03:55:43;;;;;;;10.20;2.70;;;;;;;7.63;86.10;101731.77;1766135;81;21384;-89
2022/11/03 03:58:12;;;;;;;17.53;3.80;;;;;;;7.62;86.10;101735.19;1768655;80;21022;-89
2022/11/03 04:00:39;;;;;;;8.88;2.65;;;;;;;7.60;86.14;101737.72;1757247;81;21757;-90
2022/11/03 04:03:20;;;;;;;11.33;3.08;;;;;;;7.60;86.20;101739.03;1719603;81;21002;-90
2022/11/03 04:05:47;;;;;;;20.12;3.65;;;;;;;7.58;86.16;101738.98;1728839;83;21798;-90
2022/11/03 04:08:14;;;;;;;14.07;3.60;;;;;;;7.58;86.23;101744.61;1728590;83;21010;-90
2022/11/03 04:22:15;;;;;;;11.45;3.62;;;;;;;7.58;86.25;101744.61;1722018;83;21497;-90
2022/11/03 04:23:55;;;;;;;15.32;3.52;;;;;;;7.65;86.53;101749.78;1728941;81;21085;-89
2022/11/03 04:26:22;;;;;;;10.48;3.02;;;;;;;7.70;86.68;101744.38;1753605;80;21264;-89
2022/11/03 04:28:49;;;;;;;15.18;3.47;;;;;;;7.77;86.77;101752.64;1769349;81;21059;-89
2022/11/03 04:31:17;;;;;;;10.55;2.75;;;;;;;7.82;86.75;101746.73;1739814;81;23041;-89
2022/11/03 04:33:44;;;;;;;13.03;3.33;;;;;;;7.87;86.71;101752.70;1768931;80;21094;-89
2022/11/03 04:36:19;;;;;;;9.53;2.90;;;;;;;7.91;86.63;101749.84;1769171;80;21046;-89
2022/11/03 04:38:47;;;;;;;9.60;3.52;;;;;;;7.92;86.49;101748.99;1732229;82;21109;-89
2022/11/03 04:41:20;;;;;;;10.63;3.00;;;;;;;7.92;86.36;101747.68;1703181;82;20964;-89
2022/11/03 04:43:47;;;;;;;19.77;3.62;;;;;;;7.90;86.18;101749.33;1667972;84;21772;-89
2022/11/03 04:46:16;;;;;;;14.30;3.40;;;;;;;7.85;86.02;101748.22;1735787;81;21147;-88
2022/11/03 04:48:43;;;;;;;13.45;3.85;;;;;;;7.79;85.94;101744.45;1750167;80;21504;-89
2022/11/03 04:51:14;;;;;;;13.38;3.05;;;;;;;7.74;85.90;101741.09;1768845;81;21066;-90
2022/11/03 04:53:51;;;;;;;8.68;2.85;;;;;;;7.70;85.86;101739.14;1769234;80;21077;-90
2022/11/03 04:56:20;;;;;;;13.78;3.67;;;;;;;7.65;85.89;101744.53;1743417;81;21832;-89
2022/11/03 04:58:47;;;;;;;12.23;3.00;;;;;;;7.62;85.87;101743.98;1765333;80;21098;-90
2022/11/03 05:01:18;;;;;;;17.00;3.85;;;;;;;7.59;85.82;101745.11;1748517;81;21013;-90
2022/11/03 05:03:46;;;;;;;15.80;3.12;;;;;;;7.55;85.82;101749.70;1727088;83;21113;-89
2022/11/03 05:06:19;;;;;;;12.85;2.85;;;;;;;7.48;85.76;101748.88;1727105;83;21624;-90
2022/11/03 05:08:49;;;;;;;9.43;2.50;;;;;;;7.45;85.85;101747.02;1723076;83;22647;-90
2022/11/03 05:11:37;;;;;;;14.50;3.45;;;;;;;7.42;85.82;101749.88;1727038;81;21870;-86
2022/11/03 05:14:21;;;;;;;15.53;3.27;;;;;;;7.38;85.80;101742.25;1722174;82;22262;-86
2022/11/03 05:16:54;;;;;;;8.20;3.27;;;;;;;7.32;85.73;101744.13;1665009;84;21835;-87
2022/11/03 05:19:31;;;;;;;13.00;4.15;;;;;;;7.26;85.67;101754.25;1723509;81;21287;-86
2022/11/03 05:21:58;;;;;;;11.80;4.37;;;;;;;7.19;85.63;101754.34;1766578;81;21730;-86
2022/11/03 05:24:25;;;;;;;15.88;5.78;;;;;;;7.15;85.71;101759.31;1766772;81;21059;-85
2022/11/03 05:26:58;;;;;;;13.43;5.12;;;;;;;7.12;85.73;101755.23;1767004;81;21065;-85
2022/11/03 05:29:31;;;;;;;9.78;4.87;;;;;;;7.07;85.73;101756.69;1766280;81;22362;-85
2022/11/03 05:31:58;;;;;;;10.88;4.53;;;;;;;7.02;85.70;101757.77;1767333;80;21476;-86
2022/11/03 05:34:34;;;;;;;12.43;4.20;;;;;;;6.97;85.73;101760.11;1780592;80;21761;-91
2022/11/03 05:55:51;;;;;;;11.03;5.17;;;;;;;6.71;85.87;101760.36;1781309;80;21066;-86
2022/11/03 05:58:34;;;;;;;12.47;4.85;;;;;;;6.68;85.89;101762.41;1760180;80;21080;-91
2022/11/03 06:01:23;;;;;;;16.05;5.55;;;;;;;6.66;85.98;101754.84;1749205;81;21089;-90
2022/11/03 06:03:50;;;;;;;16.27;6.62;;;;;;;6.65;85.98;101756.09;1723736;81;21547;-90
2022/11/03 06:06:27;;;;;;;12.78;6.70;;;;;;;6.61;85.90;101754.60;1710377;82;22799;-90
2022/11/03 06:09:00;;;;;;;12.85;5.20;;;;;;;6.60;85.90;101757.12;1719251;82;21085;-91
2022/11/03 06:11:40;;;;;;;12.63;4.03;;;;;;;6.58;85.94;101759.65;1698842;83;21614;-91
2022/11/03 06:14:24;;;;;;;7.22;3.60;;;;;;;6.56;85.91;101756.46;1680720;84;21111;-92
2022/11/03 06:16:57;;;;;;;16.20;3.50;;;;;;;6.55;85.98;101755.95;1677372;85;21164;-86
2022/11/03 06:19:38;;;;;;;8.35;3.65;;;;;;;6.55;86.10;101755.95;1659754;85;22106;-86
2022/11/03 06:22:26;;;;;;;8.65;3.87;;;;;;;6.57;86.17;101751.74;1660586;85;21130;-87
2022/11/03 06:25:27;;;;;;;10.82;4.00;;;;;;;6.56;86.13;101762.59;1660671;85;21144;-86
2022/11/03 06:27:59;;;;;;;11.40;3.35;;;;;;;6.58;86.16;101759.65;1678919;85;21125;-87
2022/11/03 06:30:35;;;;;;;16.73;5.15;;;;;;;6.59;86.20;101760.58;1678705;85;21091;-86
2022/11/03 06:33:23;;;;;;;12.68;4.28;;;;;;;6.60;86.21;101764.56;1692782;82;21730;-86
2022/11/03 06:35:52;;;;;;;10.48;3.95;;;;;;;6.63;86.23;101765.58;1709301;83;20992;-87
2022/11/03 06:38:23;;;;;;;13.40;4.08;;;;;;;6.66;86.23;101768.34;1708956;83;21000;-86
2022/11/03 06:40:53;;;;;;;14.40;4.58;;;;;;;6.67;86.25;101763.21;1684021;84;21254;-86
2022/11/03 06:43:39;;;;;;;12.73;4.30;;;;;;;6.70;86.24;101775.17;1676099;84;20998;-86
2022/11/03 06:46:19;;;;;;;11.35;3.92;;;;;;;6.75;86.30;101776.72;1695777;84;21721;-86
2022/11/03 06:48:46;;;;;;;10.63;4.25;;;;;;;6.77;86.29;101778.60;1706053;83;21540;-86
2022/11/03 06:51:23;;;;;;;10.32;3.85;;;;;;;6.81;86.32;101784.53;1710686;83;21511;-87
2022/11/03 06:53:51;;;;;;;13.60;4.10;;;;;;;6.86;86.36;101779.95;1710763;83;21438;-87
2022/11/03 06:56:22;;;;;;;7.65;4.30;;;;;;;6.90;86.28;101788.47;1709881;83;21031;-86
2022/11/03 06:58:53;;;;;;;8.33;4.20;;;;;;;6.94;86.27;101779.97;1689239;83;22604;-87
2022/11/03 07:01:31;;;;;;;12.07;4.67;;;;;;;6.97;86.27;101781.05;1694483;84;21018;-87
2022/11/03 07:04:19;;;;;;;11.20;5.45;;;;;;;7.03;86.32;101781.80;1709706;83;21026;-86
2022/11/03 07:06:47;;;;;;;18.00;6.08;;;;;;;7.09;86.35;101792.60;1694352;84;21042;-86
2022/11/03 07:09:20;;;;;;;16.42;5.05;;;;;;;7.16;86.38;101799.98;1693006;84;21559;-87
2022/11/03 07:11:50;;;;;;;13.43;5.22;;;;;;;7.23;86.40;101801.66;1693124;83;21806;-86
2022/11/03 07:14:23;;;;;;;13.98;5.30;;;;;;;7.28;86.37;101802.41;1685776;85;21014;-87
2022/11/03 07:17:00;;;;;;;11.45;4.28;;;;;;;7.35;86.38;101795.77;1710214;83;20987;-87
2022/11/03 07:19:36;;;;;;;10.00;4.30;;;;;;;7.43;86.40;101804.94;1718721;83;21007;-87
2022/11/03 07:22:05;;;;;;;13.03;4.83;;;;;;;7.50;86.33;101803.56;1709513;83;21105;-87
2022/11/03 07:24:39;;;;;;;12.68;4.33;;;;;;;7.56;86.36;101801.27;1691032;83;21834;-86
2022/11/03 07:27:26;;;;;;;11.22;3.92;;;;;;;7.64;86.36;101806.92;1717245;83;25447;-87
2022/11/03 07:30:02;;;;;;;11.50;3.90;;;;;;;7.69;86.27;101803.73;1717089;82;21021;-87
2022/11/03 07:32:32;;;;;;;8.40;3.77;;;;;;;7.76;86.20;101808.91;1703964;83;21664;-87
2022/11/03 07:35:16;;;;;;;14.25;3.90;;;;;;;7.83;86.15;101807.11;1717117;82;21117;-87
2022/11/03 07:37:43;;;;;;;;;;;;;;;7.89;86.12;101811.77;1719713;83;21782;-87
2022/11/03 07:40:25;;;;;;;10.75;3.33;;;;;;;7.94;86.02;101806.37;1708661;83;20965;-86
2022/11/03 07:42:53;;;;;;;11.73;3.62;;;;;;;8.01;85.99;101808.88;1708435;82;21530;-86
2022/11/03 07:45:55;;;;;;;17.15;4.03;;;;;;;8.07;85.96;101811.81;1708711;83;21507;-87
2022/11/03 07:48:32;;;;;;;12.10;3.83;;;;;;;8.15;86.01;101809.20;1708814;83;21101;-87
2022/11/03 07:51:00;;;;;;;9.15;4.03;;;;;;;8.25;86.00;101810.58;1708644;83;21804;-87
2022/11/03 07:53:40;;;;;;;16.75;4.28;;;;;;;8.33;85.97;101815.41;1710550;83;20987;-86
2022/11/03 07:56:27;;;;;;;11.43;4.00;;;;;;;8.41;85.92;101809.23;1709750;83;21015;-87
2022/11/03 07:59:00;;;;;;;21.07;4.30;;;;;;;8.47;85.76;101808.67;1707736;82;21039;-86
2022/11/03 08:01:31;;;;;;;11.57;3.52;;;;;;;8.54;85.66;101812.99;1708428;82;21156;-86
2022/11/03 08:04:10;;;;;;;11.38;3.77;;;;;;;8.62;85.62;101816.00;1708650;83;22130;-87
2022/11/03 08:06:37;;;;;;;14.78;3.60;;;;;;;8.69;85.58;101804.98;1708461;82;21067;-86
2022/11/03 08:09:04;;;;;;;11.75;3.50;;;;;;;8.80;85.56;101804.59;1709415;83;21090;-87
2022/11/03 08:11:31;;;;;;;13.10;3.92;;;;;;;8.87;85.49;101798.41;1682493;84;21077;-87
2022/11/03 08:13:58;;;;;;;9.65;3.40;;;;;;;8.94;85.46;101802.24;1689246;84;21102;-87
2022/11/03 08:16:25;;;;;;;12.55;3.40;;;;;;;9.04;85.42;101805.78;1688899;84;21891;-87
2022/11/03 08:18:51;;;;;;;12.43;4.05;;;;;;;9.11;85.35;101806.57;1689020;83;21606;-86
2022/11/03 08:21:18;;;;;;;11.90;3.72;;;;;;;9.20;85.29;101802.61;1689162;84;21523;-87
2022/11/03 08:23:45;;;;;;;14.75;3.55;;;;;;;9.28;85.22;101797.28;1689036;84;21173;-87
2022/11/03 08:26:12;;;;;;;14.15;3.65;;;;;;;9.36;85.02;101792.39;1689039;84;21567;-86
2022/11/03 08:28:39;;;;;;;14.87;4.12;;;;;;;9.43;84.96;101794.05;1689196;84;22542;-87
2022/11/03 08:31:06;;;;;;;12.98;3.70;;;;;;;9.52;84.86;101793.59;1688966;84;21061;-87
2022/11/03 08:33:37;;;;;;;10.23;3.60;;;;;;;9.61;84.83;101788.75;1689081;84;21179;-86
2022/11/03 08:36:04;;;;;;;11.22;4.22;;;;;;;9.70;84.78;101787.86;1690671;84;21034;-87
2022/11/03 08:38:31;;;;;;;12.93;4.53;;;;;;;9.78;84.57;101784.26;1690283;84;21558;-87
2022/11/03 08:40:58;;;;;;;14.70;4.58;;;;;;;9.85;84.50;101781.08;1699838;83;21916;-86
2022/11/03 08:43:25;;;;;;;11.25;4.50;;;;;;;9.92;84.37;101776.55;1709189;82;21622;-87
2022/11/03 08:45:52;;;;;;;14.00;4.25;;;;;;;10.01;84.32;101776.48;1709038;82;21094;-87
2022/11/03 08:48:20;;;;;;;12.80;4.45;;;;;;;10.05;84.16;101777.98;1709078;83;21075;-87
2022/11/03 08:50:49;;;;;;;10.88;3.35;;;;;;;10.12;84.11;101767.33;1709208;83;20994;-85
2022/11/03 08:53:16;;;;;;;15.20;4.78;;;;;;;10.20;84.07;101772.91;1696038;83;21767;-85
2022/11/03 08:55:43;;;;;;;14.28;4.15;;;;;;;10.28;83.95;101768.44;1694685;84;21061;-85
2022/11/03 08:58:10;;;;;;;15.30;5.28;;;;;;;10.35;83.79;101774.02;1700983;81;21457;-86
2022/11/03 09:00:36;;;;;;;10.68;4.42;;;;;;;10.40;83.67;101772.45;1723010;83;21485;-88
2022/11/03 09:03:03;;;;;;;8.85;3.52;;;;;;;10.46;83.53;101767.05;1714742;83;21095;-88
2022/11/03 09:05:30;;;;;;;12.03;3.67;;;;;;;10.53;83.50;101767.30;1723114;82;21753;-88
2022/11/03 09:07:58;;;;;;;11.78;5.25;;;;;;;10.61;83.44;101773.80;1723598;83;21125;-87
2022/11/03 09:10:25;;;;;;;10.23;3.83;;;;;;;10.68;83.36;101769.27;1723648;81;21584;-88
2022/11/03 09:12:53;;;;;;;12.50;4.50;;;;;;;10.76;83.32;101765.63;1706389;83;21043;-88
2022/11/03 09:15:20;;;;;;;15.63;4.40;;;;;;;10.83;83.17;101771.20;1702647;81;21085;-88
2022/11/03 09:17:47;;;;;;;19.12;4.22;;;;;;;10.88;83.03;101761.72;1694997;84;21049;-88
2022/11/03 09:20:15;;;;;;;9.08;3.75;;;;;;;10.97;82.87;101753.73;1694378;84;21085;-88
2022/11/03 09:22:42;;;;;;;14.30;3.90;;;;;;;11.04;82.73;101761.92;1694803;84;21074;-88
2022/11/03 09:25:09;;;;;;;13.78;3.92;;;;;;;11.08;82.52;101758.56;1694699;84;21073;-88
2022/11/03 09:27:36;;;;;;;11.18;3.77;;;;;;;11.14;82.38;101758.34;1694623;84;21556;-88
2022/11/03 09:30:04;;;;;;;12.00;3.05;;;;;;;11.20;82.21;101769.11;1694771;84;21751;-88
2022/11/03 09:32:31;;;;;;;15.45;5.17;;;;;;;11.24;82.05;101764.42;1694571;84;21070;-88
2022/11/03 09:34:59;;;;;;;13.55;4.20;;;;;;;11.29;81.75;101764.19;1694232;84;21843;-85
2022/11/03 09:37:26;;;;;;;13.90;3.75;;;;;;;11.33;81.67;101755.98;1694277;84;21707;-85
2022/11/03 09:39:53;;;;;;;10.00;3.87;;;;;;;11.39;81.43;101761.48;1696315;83;21625;-86
2022/11/03 09:42:20;;;;;;;12.82;5.22;;;;;;;11.41;81.19;101757.16;1722698;83;22601;-86
2022/11/03 09:44:48;;;;;;;14.90;4.12;;;;;;;11.44;80.95;101754.22;1722887;82;21521;-85
2022/11/03 09:47:27;;;;;;;12.33;3.95;;;;;;;11.49;80.86;101753.09;1722899;81;21069;-85
2022/11/03 09:49:54;;;;;;;10.93;3.05;;;;;;;11.54;80.69;101759.41;1711503;82;21980;-85
2022/11/03 09:52:22;;;;;;;12.33;3.00;;;;;;;11.59;80.28;101759.59;1722665;83;21612;-88
2022/11/03 09:54:50;;;;;;;12.47;3.87;;;;;;;11.63;80.08;101760.19;1723024;83;21704;-88
2022/11/03 09:57:17;;;;;;;11.60;3.52;;;;;;;11.66;79.77;101760.31;1679868;83;22427;-88
2022/11/03 09:59:47;;;;;;;14.33;4.83;;;;;;;11.67;79.66;101765.64;1704250;83;20984;-88
2022/11/03 10:02:27;;;;;;;14.73;5.62;;;;;;;11.73;79.58;101757.45;1693816;84;21024;-88
2022/11/03 10:04:58;;;;;;;19.17;6.85;;;;;;;11.71;79.42;101751.23;1733150;82;21074;-88
2022/11/03 10:07:26;;;;;;;13.15;3.87;;;;;;;11.83;79.23;101756.53;1732058;82;21773;-88
2022/11/03 10:09:53;;;;;;;14.53;3.60;;;;;;;11.89;79.09;101756.28;1732643;82;21750;-88
2022/11/03 10:12:22;;;;;;;8.65;2.92;;;;;;;11.96;78.91;101763.19;1757035;80;21512;-88
2022/11/03 10:14:48;;;;;;;6.47;2.42;;;;;;;12.00;78.63;101761.12;1765480;81;21045;-88
2022/11/03 10:17:25;;;;;;;12.78;3.25;;;;;;;12.04;78.21;101756.42;1765081;80;21104;-88
2022/11/03 10:19:52;;;;;;;10.53;3.05;;;;;;;12.02;77.87;101755.47;1764925;80;21813;-88
2022/11/03 10:22:19;;;;;;;9.45;2.80;;;;;;;12.00;77.71;101757.17;1765081;81;21028;-88
2022/11/03 10:24:46;;;;;;;7.60;2.40;;;;;;;11.99;77.36;101754.47;1713255;82;21153;-88
2022/11/03 10:27:24;;;;;;;11.18;2.80;;;;;;;11.95;77.10;101750.82;1712826;82;22098;-87
2022/11/03 10:30:11;;;;;;;7.03;2.52;;;;;;;11.92;76.93;101749.41;1683079;83;21055;-88
2022/11/03 10:32:40;;;;;;;7.40;2.50;;;;;;;11.93;76.99;101743.70;1717799;83;21756;-88
2022/11/03 10:35:30;;;;;;;11.40;2.37;;;;;;;11.90;76.52;101739.63;1713221;82;21504;-87
2022/11/03 10:38:08;;;;;;;9.15;2.62;;;;;;;11.89;76.37;101741.77;1708739;82;20989;-88
2022/11/03 10:40:38;;;;;;;6.58;2.40;;;;;;;11.87;76.25;101740.39;1681014;82;21116;-88
2022/11/03 10:43:14;;;;;;;11.63;2.77;;;;;;;11.85;75.91;101735.48;1713274;82;21113;-87
2022/11/03 10:45:41;;;;;;;13.35;2.70;;;;;;;11.82;75.78;101734.97;1718252;82;21720;-88
2022/11/03 10:48:09;;;;;;;9.03;2.80;;;;;;;11.80;75.70;101732.67;1709761;82;21070;-88
2022/11/03 10:50:38;;;;;;;10.55;2.80;;;;;;;11.79;75.68;101732.64;1693142;83;22012;-87
2022/11/03 10:53:04;;;;;;;6.58;1.95;;;;;;;11.77;75.42;101729.94;1679228;84;21261;-87
2022/11/03 10:55:31;;;;;;;12.75;2.90;;;;;;;11.74;75.11;101728.94;1712680;83;21549;-88
2022/11/03 10:57:58;;;;;;;9.58;2.52;;;;;;;11.68;75.09;101723.02;1711851;83;21786;-88
2022/11/03 11:00:25;;;;;;;10.05;2.42;;;;;;;11.65;75.05;101722.89;1711534;81;21122;-88
2022/11/03 11:02:57;;;;;;;7.70;2.37;;;;;;;11.60;74.94;101725.37;1703476;84;21265;-88
2022/11/03 11:05:24;;;;;;;10.05;2.33;;;;;;;11.56;75.01;101730.47;1698058;84;21051;-86
2022/11/03 11:07:54;;;;;;;11.00;3.45;;;;;;;11.52;75.02;101725.93;1685076;85;21054;-86
2022/11/03 11:10:24;;;;;;;8.23;2.67;;;;;;;11.50;75.08;101719.28;1684670;85;21766;-85
2022/11/03 11:13:20;;;;;;;11.55;3.45;;;;;;;11.45;75.06;101720.44;1749908;81;21054;-86
2022/11/03 11:15:53;;;;;;;12.98;3.80;;;;;;;11.42;75.09;101720.31;1739051;79;21515;-86
2022/11/03 11:18:34;;;;;;;15.15;4.62;;;;;;;11.40;75.20;101714.52;1713117;82;21508;-86
2022/11/03 11:21:03;;;;;;;22.07;7.70;;;;;;;11.37;75.24;101712.65;1676107;84;21113;-88
2022/11/03 11:23:41;;;;;;;13.95;5.10;;;;;;;11.34;75.28;101704.65;1672301;85;21783;-88
2022/11/03 11:26:13;;;;;;;17.02;5.30;;;;;;;11.33;75.25;101703.27;1675388;84;21074;-88
2022/11/03 11:28:44;;;;;;;13.30;4.80;;;;;;;11.29;75.29;101705.77;1712992;83;21094;-88
2022/11/03 11:31:30;;;;;;;11.03;4.17;;;;;;;11.27;75.30;101702.19;1674447;84;21525;-88
2022/11/03 11:34:22;;;;;;;12.85;3.90;;;;;;;11.24;75.32;101694.19;1712371;82;22389;-88
2022/11/03 11:36:57;;;;;;;;;;;;;;;11.21;75.31;101694.06;1677929;85;22309;-87
2022/11/03 11:39:32;;;;;;;12.58;4.20;;;;;;;11.17;75.18;101689.52;1658635;86;20218;-87
2022/11/03 11:42:18;;;;;;;10.88;4.03;;;;;;;11.13;75.16;101681.42;1749277;81;21342;-88
2022/11/03 11:44:53;;;;;;;16.37;4.63;;;;;;;11.08;75.23;101682.16;1757471;81;21657;-88
2022/11/03 11:47:43;;;;;;;17.12;4.42;;;;;;;11.06;75.29;101676.36;1764554;81;21111;-88
2022/11/03 11:50:18;;;;;;;13.45;4.58;;;;;;;11.05;75.31;101678.08;1764776;81;21757;-85
2022/11/03 11:53:01;;;;;;;18.02;5.08;;;;;;;11.03;75.33;101674.48;1764697;80;21109;-85
2022/11/03 11:55:56;;;;;;;17.98;5.47;;;;;;;11.03;75.38;101677.55;1761887;80;21067;-85
2022/11/03 11:58:34;;;;;;;11.35;5.15;;;;;;;11.04;75.41;101671.45;1748971;81;21050;-85
2022/11/03 12:01:21;;;;;;;14.33;4.72;;;;;;;11.04;75.41;101675.41;1715959;82;21045;-85
2022/11/03 12:03:49;;;;;;;15.00;4.75;;;;;;;11.05;75.49;101671.48;1715283;82;22034;-85
2022/11/03 12:06:15;;;;;;;13.43;4.90;;;;;;;11.05;75.51;101664.91;1715140;82;21056;-85
2022/11/03 12:08:42;;;;;;;16.80;5.17;;;;;;;11.06;75.50;101662.77;1715444;82;21527;-85
2022/11/03 12:11:12;;;;;;;18.10;5.40;;;;;;;11.07;75.55;101656.67;1724607;81;21625;-85
2022/11/03 12:13:51;;;;;;;12.23;4.85;;;;;;;11.07;75.61;101654.03;1749284;81;21027;-86
2022/11/03 12:16:34;;;;;;;17.80;7.15;;;;;;;11.09;75.67;101654.06;1722730;81;21768;-86
2022/11/03 12:19:35;;;;;;;17.60;7.43;;;;;;;11.11;75.71;101644.48;1749128;81;21070;-85
2022/11/03 12:22:06;;;;;;;14.45;4.60;;;;;;;11.14;75.75;101648.55;1749525;81;21077;-85
2022/11/03 12:24:36;;;;;;;14.93;5.22;;;;;;;11.17;75.65;101642.09;1748419;81;21078;-89